King Salmon Airport King Salmon US
ICAO: PAKN
IATA:
Category: Medium
Scheduled Services:

Elevation: 73 ft
TransAlt. 18000 ft.

Airport Communications:
HARMONY:140.1
ATIS:128.8
ANCHORAGE CNTR:124.8
CTAF:121.9
RDO:122.2
GND:121.9
OPS:37.22
PTD:37.22
TWR:118.3

PAKN Zoom In..

Runways:

(A) RW 12 length 8901 ft width 150 ft
ILS 110.30 / hdg 116

(B) RW 18 length 4018 ft width 100 ft
---- / hdg 180

(C) RW 30 length 8901 ft width 150 ft
---- / hdg 296

(D) RW 36 length 4018 ft width 100 ft
---- / hdg 360

Location; PAKN
Day. 29 / Time. 15.22 Zulu
* Altimeter: 29.08
* Temperature: -07° c. -19.4°f.
* Wind from: 310° Speed 07 kn.
Dewpoint: -09° c.
Visibility: 8 Statute Miles.
Clouds: Broken 3100 ft.
Clouds: Overcast 4000 ft.

PAKN 291522Z AUTO 31007KT 8SM BKN031 OVC040 M07/M09 A2908 RMK AO2 SNE20 P0000 T10721089 TSNO

Going to: --> -->


Wind From 310°
Speed 07 kn.

 
 
jpsmedia worldairports.se 2020   terms of use